sensor_id;sensor_type;location;lat;lon;timestamp;P1;durP1;ratioP1;P2;durP2;ratioP2
19804;SDS011;10062;51.052;13.756;2023-04-15T00:00:38;6.40;;;3.93;;
19804;SDS011;10062;51.052;13.756;2023-04-15T00:03:10;6.20;;;4.20;;
19804;SDS011;10062;51.052;13.756;2023-04-15T00:05:41;5.37;;;3.57;;
19804;SDS011;10062;51.052;13.756;2023-04-15T00:08:13;5.27;;;3.20;;
19804;SDS011;10062;51.052;13.756;2023-04-15T00:10:44;7.30;;;3.87;;
19804;SDS011;10062;51.052;13.756;2023-04-15T00:13:18;4.70;;;3.40;;
19804;SDS011;10062;51.052;13.756;2023-04-15T00:15:49;5.93;;;3.70;;
19804;SDS011;10062;51.052;13.756;2023-04-15T00:18:21;5.40;;;3.33;;
19804;SDS011;10062;51.052;13.756;2023-04-15T00:20:53;6.73;;;3.77;;
19804;SDS011;10062;51.052;13.756;2023-04-15T00:23:25;5.63;;;3.50;;
19804;SDS011;10062;51.052;13.756;2023-04-15T00:25:57;4.60;;;3.03;;
19804;SDS011;10062;51.052;13.756;2023-04-15T00:28:30;5.17;;;3.17;;
19804;SDS011;10062;51.052;13.756;2023-04-15T00:31:02;4.47;;;2.63;;
19804;SDS011;10062;51.052;13.756;2023-04-15T00:33:34;4.43;;;2.73;;
19804;SDS011;10062;51.052;13.756;2023-04-15T00:36:06;6.30;;;3.60;;
19804;SDS011;10062;51.052;13.756;2023-04-15T00:38:38;6.03;;;3.53;;
19804;SDS011;10062;51.052;13.756;2023-04-15T00:41:10;4.90;;;2.87;;
19804;SDS011;10062;51.052;13.756;2023-04-15T00:43:44;4.93;;;3.10;;
19804;SDS011;10062;51.052;13.756;2023-04-15T00:46:16;4.97;;;3.23;;
19804;SDS011;10062;51.052;13.756;2023-04-15T00:48:50;4.77;;;2.53;;
19804;SDS011;10062;51.052;13.756;2023-04-15T00:51:22;5.07;;;3.20;;
19804;SDS011;10062;51.052;13.756;2023-04-15T00:53:54;3.57;;;2.07;;
19804;SDS011;10062;51.052;13.756;2023-04-15T00:56:26;5.77;;;3.50;;
19804;SDS011;10062;51.052;13.756;2023-04-15T00:59:00;4.83;;;2.93;;
19804;SDS011;10062;51.052;13.756;2023-04-15T01:01:32;4.70;;;2.80;;
19804;SDS011;10062;51.052;13.756;2023-04-15T01:04:05;5.00;;;2.93;;
19804;SDS011;10062;51.052;13.756;2023-04-15T01:06:39;5.10;;;3.20;;
19804;SDS011;10062;51.052;13.756;2023-04-15T01:09:10;5.37;;;2.50;;
19804;SDS011;10062;51.052;13.756;2023-04-15T01:11:42;4.43;;;2.50;;
19804;SDS011;10062;51.052;13.756;2023-04-15T01:14:16;5.17;;;3.17;;
19804;SDS011;10062;51.052;13.756;2023-04-15T01:16:47;5.53;;;3.00;;
19804;SDS011;10062;51.052;13.756;2023-04-15T01:19:19;5.00;;;3.10;;
19804;SDS011;10062;51.052;13.756;2023-04-15T01:21:51;5.10;;;3.10;;
19804;SDS011;10062;51.052;13.756;2023-04-15T01:24:23;5.63;;;3.03;;
19804;SDS011;10062;51.052;13.756;2023-04-15T01:26:59;6.70;;;2.93;;
19804;SDS011;10062;51.052;13.756;2023-04-15T01:29:31;5.70;;;3.10;;
19804;SDS011;10062;51.052;13.756;2023-04-15T01:32:09;6.73;;;3.70;;
19804;SDS011;10062;51.052;13.756;2023-04-15T01:34:41;5.40;;;3.17;;
19804;SDS011;10062;51.052;13.756;2023-04-15T01:37:12;6.57;;;3.50;;
19804;SDS011;10062;51.052;13.756;2023-04-15T01:39:44;5.47;;;3.53;;
19804;SDS011;10062;51.052;13.756;2023-04-15T01:42:17;6.07;;;4.10;;
19804;SDS011;10062;51.052;13.756;2023-04-15T01:44:48;5.10;;;3.20;;
19804;SDS011;10062;51.052;13.756;2023-04-15T01:47:20;7.37;;;4.13;;
19804;SDS011;10062;51.052;13.756;2023-04-15T01:49:52;6.93;;;4.00;;
19804;SDS011;10062;51.052;13.756;2023-04-15T01:52:25;5.87;;;3.43;;
19804;SDS011;10062;51.052;13.756;2023-04-15T01:54:57;5.40;;;3.33;;
19804;SDS011;10062;51.052;13.756;2023-04-15T01:57:30;7.10;;;4.30;;
19804;SDS011;10062;51.052;13.756;2023-04-15T02:00:01;7.10;;;4.13;;
19804;SDS011;10062;51.052;13.756;2023-04-15T02:02:43;6.67;;;4.37;;
19804;SDS011;10062;51.052;13.756;2023-04-15T02:05:15;6.67;;;3.97;;
19804;SDS011;10062;51.052;13.756;2023-04-15T02:07:50;6.53;;;4.13;;
19804;SDS011;10062;51.052;13.756;2023-04-15T02:10:22;7.53;;;3.60;;
19804;SDS011;10062;51.052;13.756;2023-04-15T02:12:55;6.43;;;4.10;;
19804;SDS011;10062;51.052;13.756;2023-04-15T02:15:31;6.73;;;3.90;;
19804;SDS011;10062;51.052;13.756;2023-04-15T02:18:03;8.27;;;4.60;;
19804;SDS011;10062;51.052;13.756;2023-04-15T02:20:35;6.90;;;4.20;;
19804;SDS011;10062;51.052;13.756;2023-04-15T02:23:07;6.73;;;4.40;;
19804;SDS011;10062;51.052;13.756;2023-04-15T02:25:38;7.43;;;4.97;;
19804;SDS011;10062;51.052;13.756;2023-04-15T02:28:11;7.27;;;4.60;;
19804;SDS011;10062;51.052;13.756;2023-04-15T02:30:46;7.47;;;4.80;;
19804;SDS011;10062;51.052;13.756;2023-04-15T02:33:18;7.43;;;4.83;;
19804;SDS011;10062;51.052;13.756;2023-04-15T02:35:49;7.73;;;4.63;;
19804;SDS011;10062;51.052;13.756;2023-04-15T02:38:22;7.73;;;4.90;;
19804;SDS011;10062;51.052;13.756;2023-04-15T02:40:53;6.27;;;4.10;;
19804;SDS011;10062;51.052;13.756;2023-04-15T02:43:27;7.57;;;5.07;;
19804;SDS011;10062;51.052;13.756;2023-04-15T02:45:59;7.37;;;4.63;;
19804;SDS011;10062;51.052;13.756;2023-04-15T02:48:31;7.20;;;4.33;;
19804;SDS011;10062;51.052;13.756;2023-04-15T02:51:12;6.97;;;4.27;;
19804;SDS011;10062;51.052;13.756;2023-04-15T02:53:44;6.40;;;4.30;;
19804;SDS011;10062;51.052;13.756;2023-04-15T02:56:17;7.00;;;5.00;;
19804;SDS011;10062;51.052;13.756;2023-04-15T02:58:50;8.03;;;5.07;;
19804;SDS011;10062;51.052;13.756;2023-04-15T03:01:25;7.60;;;4.97;;
19804;SDS011;10062;51.052;13.756;2023-04-15T03:03:57;6.40;;;4.50;;
19804;SDS011;10062;51.052;13.756;2023-04-15T03:06:29;7.23;;;4.87;;
19804;SDS011;10062;51.052;13.756;2023-04-15T03:09:00;6.70;;;4.07;;
19804;SDS011;10062;51.052;13.756;2023-04-15T03:11:37;6.20;;;4.27;;
19804;SDS011;10062;51.052;13.756;2023-04-15T03:14:13;7.90;;;5.27;;
19804;SDS011;10062;51.052;13.756;2023-04-15T03:16:49;7.80;;;4.40;;
19804;SDS011;10062;51.052;13.756;2023-04-15T03:19:21;8.47;;;4.80;;
19804;SDS011;10062;51.052;13.756;2023-04-15T03:21:53;7.07;;;5.00;;
19804;SDS011;10062;51.052;13.756;2023-04-15T03:24:25;7.30;;;4.67;;
19804;SDS011;10062;51.052;13.756;2023-04-15T03:26:59;6.90;;;4.40;;
19804;SDS011;10062;51.052;13.756;2023-04-15T03:29:33;8.00;;;4.77;;
19804;SDS011;10062;51.052;13.756;2023-04-15T03:32:04;8.63;;;5.33;;
19804;SDS011;10062;51.052;13.756;2023-04-15T03:34:38;8.60;;;5.10;;
19804;SDS011;10062;51.052;13.756;2023-04-15T03:37:09;7.20;;;4.67;;
19804;SDS011;10062;51.052;13.756;2023-04-15T03:39:41;7.40;;;4.40;;
19804;SDS011;10062;51.052;13.756;2023-04-15T03:42:12;7.83;;;4.80;;
19804;SDS011;10062;51.052;13.756;2023-04-15T03:44:46;7.10;;;4.93;;
19804;SDS011;10062;51.052;13.756;2023-04-15T03:47:17;8.53;;;5.40;;
19804;SDS011;10062;51.052;13.756;2023-04-15T03:49:49;7.03;;;4.73;;
19804;SDS011;10062;51.052;13.756;2023-04-15T03:52:21;7.43;;;5.17;;
19804;SDS011;10062;51.052;13.756;2023-04-15T03:54:52;7.33;;;4.80;;
19804;SDS011;10062;51.052;13.756;2023-04-15T03:57:24;7.60;;;5.17;;
19804;SDS011;10062;51.052;13.756;2023-04-15T03:59:57;9.37;;;5.50;;
19804;SDS011;10062;51.052;13.756;2023-04-15T04:02:28;6.87;;;4.93;;
19804;SDS011;10062;51.052;13.756;2023-04-15T04:05:00;7.47;;;4.77;;
19804;SDS011;10062;51.052;13.756;2023-04-15T04:07:32;7.87;;;5.57;;
19804;SDS011;10062;51.052;13.756;2023-04-15T04:10:03;7.80;;;5.23;;
19804;SDS011;10062;51.052;13.756;2023-04-15T04:12:36;7.47;;;4.77;;
19804;SDS011;10062;51.052;13.756;2023-04-15T04:15:09;10.43;;;5.67;;
19804;SDS011;10062;51.052;13.756;2023-04-15T04:17:41;8.27;;;5.23;;
19804;SDS011;10062;51.052;13.756;2023-04-15T04:20:13;8.13;;;4.90;;
19804;SDS011;10062;51.052;13.756;2023-04-15T04:22:45;7.07;;;4.47;;
19804;SDS011;10062;51.052;13.756;2023-04-15T04:25:16;7.67;;;4.90;;
19804;SDS011;10062;51.052;13.756;2023-04-15T04:27:48;8.27;;;5.40;;
19804;SDS011;10062;51.052;13.756;2023-04-15T04:30:21;7.87;;;5.07;;
19804;SDS011;10062;51.052;13.756;2023-04-15T04:32:53;7.73;;;5.57;;
19804;SDS011;10062;51.052;13.756;2023-04-15T04:35:24;9.47;;;5.70;;
19804;SDS011;10062;51.052;13.756;2023-04-15T04:37:56;8.77;;;5.80;;
19804;SDS011;10062;51.052;13.756;2023-04-15T04:40:28;8.97;;;5.47;;
19804;SDS011;10062;51.052;13.756;2023-04-15T04:42:59;8.90;;;5.90;;
19804;SDS011;10062;51.052;13.756;2023-04-15T04:45:32;9.63;;;6.10;;
19804;SDS011;10062;51.052;13.756;2023-04-15T04:48:05;8.63;;;5.67;;
19804;SDS011;10062;51.052;13.756;2023-04-15T04:50:37;10.50;;;7.03;;
19804;SDS011;10062;51.052;13.756;2023-04-15T04:53:09;10.43;;;6.33;;
19804;SDS011;10062;51.052;13.756;2023-04-15T04:55:41;10.00;;;5.90;;
19804;SDS011;10062;51.052;13.756;2023-04-15T04:58:12;10.63;;;7.03;;
19804;SDS011;10062;51.052;13.756;2023-04-15T05:00:46;12.00;;;7.93;;
19804;SDS011;10062;51.052;13.756;2023-04-15T05:03:17;11.37;;;7.57;;
19804;SDS011;10062;51.052;13.756;2023-04-15T05:05:49;10.53;;;7.10;;
19804;SDS011;10062;51.052;13.756;2023-04-15T05:08:21;10.00;;;6.57;;
19804;SDS011;10062;51.052;13.756;2023-04-15T05:10:52;11.27;;;6.70;;
19804;SDS011;10062;51.052;13.756;2023-04-15T05:13:24;10.10;;;6.87;;
19804;SDS011;10062;51.052;13.756;2023-04-15T05:15:57;11.67;;;6.87;;
19804;SDS011;10062;51.052;13.756;2023-04-15T05:18:29;11.93;;;7.40;;
19804;SDS011;10062;51.052;13.756;2023-04-15T05:21:01;11.07;;;6.63;;
19804;SDS011;10062;51.052;13.756;2023-04-15T05:23:32;10.97;;;7.40;;
19804;SDS011;10062;51.052;13.756;2023-04-15T05:26:04;12.07;;;7.53;;
19804;SDS011;10062;51.052;13.756;2023-04-15T05:28:36;11.03;;;6.87;;
19804;SDS011;10062;51.052;13.756;2023-04-15T05:31:09;12.93;;;7.20;;
19804;SDS011;10062;51.052;13.756;2023-04-15T05:33:40;10.20;;;6.03;;
19804;SDS011;10062;51.052;13.756;2023-04-15T05:36:12;9.43;;;4.97;;
19804;SDS011;10062;51.052;13.756;2023-04-15T05:38:44;13.90;;;7.40;;
19804;SDS011;10062;51.052;13.756;2023-04-15T05:41:15;11.03;;;6.40;;
19804;SDS011;10062;51.052;13.756;2023-04-15T05:43:47;13.23;;;6.83;;
19804;SDS011;10062;51.052;13.756;2023-04-15T05:46:20;11.67;;;6.27;;
19804;SDS011;10062;51.052;13.756;2023-04-15T05:48:52;9.37;;;6.17;;
19804;SDS011;10062;51.052;13.756;2023-04-15T05:51:23;12.57;;;7.40;;
19804;SDS011;10062;51.052;13.756;2023-04-15T05:53:56;6.93;;;4.30;;
19804;SDS011;10062;51.052;13.756;2023-04-15T05:56:27;6.67;;;3.60;;
19804;SDS011;10062;51.052;13.756;2023-04-15T05:58:59;6.70;;;3.80;;
19804;SDS011;10062;51.052;13.756;2023-04-15T06:01:33;6.10;;;3.63;;
19804;SDS011;10062;51.052;13.756;2023-04-15T06:04:04;6.37;;;3.07;;
19804;SDS011;10062;51.052;13.756;2023-04-15T06:06:36;6.80;;;3.20;;
19804;SDS011;10062;51.052;13.756;2023-04-15T06:09:08;5.47;;;2.93;;
19804;SDS011;10062;51.052;13.756;2023-04-15T06:11:40;5.27;;;2.63;;
19804;SDS011;10062;51.052;13.756;2023-04-15T06:14:11;4.40;;;2.23;;
19804;SDS011;10062;51.052;13.756;2023-04-15T06:16:44;4.47;;;2.40;;
19804;SDS011;10062;51.052;13.756;2023-04-15T06:19:16;5.40;;;1.97;;
19804;SDS011;10062;51.052;13.756;2023-04-15T06:21:48;4.90;;;2.30;;
19804;SDS011;10062;51.052;13.756;2023-04-15T06:24:20;4.57;;;2.60;;
19804;SDS011;10062;51.052;13.756;2023-04-15T06:26:52;4.90;;;2.27;;
19804;SDS011;10062;51.052;13.756;2023-04-15T06:29:23;4.23;;;2.23;;
19804;SDS011;10062;51.052;13.756;2023-04-15T06:31:56;2.70;;;1.60;;
19804;SDS011;10062;51.052;13.756;2023-04-15T06:34:29;5.57;;;2.10;;
19804;SDS011;10062;51.052;13.756;2023-04-15T06:37:01;5.07;;;2.93;;
19804;SDS011;10062;51.052;13.756;2023-04-15T06:39:32;6.37;;;3.23;;
19804;SDS011;10062;51.052;13.756;2023-04-15T06:42:04;17.43;;;10.70;;
19804;SDS011;10062;51.052;13.756;2023-04-15T06:44:36;9.47;;;5.20;;
19804;SDS011;10062;51.052;13.756;2023-04-15T06:47:09;7.27;;;4.10;;
19804;SDS011;10062;51.052;13.756;2023-04-15T06:49:42;4.83;;;2.77;;
19804;SDS011;10062;51.052;13.756;2023-04-15T06:52:13;5.23;;;2.37;;
19804;SDS011;10062;51.052;13.756;2023-04-15T06:54:46;4.03;;;2.27;;
19804;SDS011;10062;51.052;13.756;2023-04-15T06:57:17;5.83;;;2.50;;
19804;SDS011;10062;51.052;13.756;2023-04-15T06:59:49;2.73;;;1.83;;
19804;SDS011;10062;51.052;13.756;2023-04-15T07:02:24;3.20;;;1.80;;
19804;SDS011;10062;51.052;13.756;2023-04-15T07:04:56;1.97;;;1.43;;
19804;SDS011;10062;51.052;13.756;2023-04-15T07:07:28;2.50;;;1.10;;
19804;SDS011;10062;51.052;13.756;2023-04-15T07:09:59;2.23;;;1.37;;
19804;SDS011;10062;51.052;13.756;2023-04-15T07:12:32;2.17;;;1.30;;
19804;SDS011;10062;51.052;13.756;2023-04-15T07:15:05;3.53;;;1.70;;
19804;SDS011;10062;51.052;13.756;2023-04-15T07:17:39;3.67;;;1.93;;
19804;SDS011;10062;51.052;13.756;2023-04-15T07:20:12;3.07;;;1.80;;
19804;SDS011;10062;51.052;13.756;2023-04-15T07:22:43;4.77;;;1.87;;
19804;SDS011;10062;51.052;13.756;2023-04-15T07:25:15;4.20;;;2.10;;
19804;SDS011;10062;51.052;13.756;2023-04-15T07:27:48;2.97;;;1.60;;
19804;SDS011;10062;51.052;13.756;2023-04-15T07:30:19;1.77;;;1.00;;
19804;SDS011;10062;51.052;13.756;2023-04-15T07:32:52;1.00;;;0.90;;
19804;SDS011;10062;51.052;13.756;2023-04-15T07:35:24;1.97;;;1.10;;
19804;SDS011;10062;51.052;13.756;2023-04-15T07:37:56;4.73;;;1.10;;
19804;SDS011;10062;51.052;13.756;2023-04-15T07:40:28;2.90;;;1.60;;
19804;SDS011;10062;51.052;13.756;2023-04-15T07:43:00;2.20;;;1.10;;
19804;SDS011;10062;51.052;13.756;2023-04-15T07:45:31;1.53;;;0.83;;
19804;SDS011;10062;51.052;13.756;2023-04-15T07:48:05;1.33;;;0.80;;
19804;SDS011;10062;51.052;13.756;2023-04-15T07:50:37;1.47;;;0.80;;
19804;SDS011;10062;51.052;13.756;2023-04-15T07:53:08;1.00;;;0.60;;
19804;SDS011;10062;51.052;13.756;2023-04-15T07:55:40;1.03;;;0.60;;
19804;SDS011;10062;51.052;13.756;2023-04-15T07:58:12;1.03;;;0.77;;
19804;SDS011;10062;51.052;13.756;2023-04-15T08:00:43;0.83;;;0.67;;
19804;SDS011;10062;51.052;13.756;2023-04-15T08:03:17;3.20;;;0.53;;
19804;SDS011;10062;51.052;13.756;2023-04-15T08:05:48;0.87;;;0.67;;
19804;SDS011;10062;51.052;13.756;2023-04-15T08:08:20;1.63;;;0.97;;
19804;SDS011;10062;51.052;13.756;2023-04-15T08:10:52;2.33;;;1.00;;
19804;SDS011;10062;51.052;13.756;2023-04-15T08:13:24;2.13;;;0.80;;
19804;SDS011;10062;51.052;13.756;2023-04-15T08:18:49;0.93;;;0.70;;
19804;SDS011;10062;51.052;13.756;2023-04-15T08:21:22;1.37;;;0.77;;
19804;SDS011;10062;51.052;13.756;2023-04-15T08:23:54;1.70;;;0.60;;
19804;SDS011;10062;51.052;13.756;2023-04-15T08:26:25;2.20;;;1.03;;
19804;SDS011;10062;51.052;13.756;2023-04-15T08:28:57;1.80;;;0.87;;
19804;SDS011;10062;51.052;13.756;2023-04-15T08:31:29;1.50;;;0.83;;
19804;SDS011;10062;51.052;13.756;2023-04-15T08:34:02;2.20;;;1.00;;
19804;SDS011;10062;51.052;13.756;2023-04-15T08:36:33;2.20;;;1.20;;
19804;SDS011;10062;51.052;13.756;2023-04-15T08:39:05;2.70;;;1.30;;
19804;SDS011;10062;51.052;13.756;2023-04-15T08:41:38;2.90;;;1.70;;
19804;SDS011;10062;51.052;13.756;2023-04-15T08:44:11;3.57;;;1.60;;
19804;SDS011;10062;51.052;13.756;2023-04-15T08:46:43;4.30;;;1.57;;
19804;SDS011;10062;51.052;13.756;2023-04-15T08:49:17;3.80;;;1.30;;
19804;SDS011;10062;51.052;13.756;2023-04-15T08:51:51;5.13;;;1.53;;
19804;SDS011;10062;51.052;13.756;2023-04-15T08:54:23;4.80;;;2.10;;
19804;SDS011;10062;51.052;13.756;2023-04-15T08:56:56;2.97;;;1.80;;
19804;SDS011;10062;51.052;13.756;2023-04-15T08:59:29;3.10;;;1.50;;
19804;SDS011;10062;51.052;13.756;2023-04-15T09:02:01;5.27;;;2.20;;
19804;SDS011;10062;51.052;13.756;2023-04-15T09:04:34;5.77;;;2.23;;
19804;SDS011;10062;51.052;13.756;2023-04-15T09:07:06;5.07;;;2.67;;
19804;SDS011;10062;51.052;13.756;2023-04-15T09:09:37;5.47;;;2.73;;
19804;SDS011;10062;51.052;13.756;2023-04-15T09:12:11;4.23;;;2.50;;
19804;SDS011;10062;51.052;13.756;2023-04-15T09:14:44;4.20;;;2.97;;
19804;SDS011;10062;51.052;13.756;2023-04-15T09:17:17;8.43;;;4.53;;
19804;SDS011;10062;51.052;13.756;2023-04-15T09:19:53;8.50;;;5.60;;
19804;SDS011;10062;51.052;13.756;2023-04-15T09:22:38;7.27;;;4.50;;
19804;SDS011;10062;51.052;13.756;2023-04-15T09:25:23;4.53;;;3.30;;
19804;SDS011;10062;51.052;13.756;2023-04-15T09:27:57;5.10;;;3.27;;
19804;SDS011;10062;51.052;13.756;2023-04-15T09:30:30;5.50;;;3.33;;
19804;SDS011;10062;51.052;13.756;2023-04-15T09:33:02;4.53;;;2.90;;
19804;SDS011;10062;51.052;13.756;2023-04-15T09:35:38;5.10;;;3.00;;
19804;SDS011;10062;51.052;13.756;2023-04-15T09:38:10;4.77;;;3.00;;
19804;SDS011;10062;51.052;13.756;2023-04-15T09:40:42;5.50;;;3.60;;
19804;SDS011;10062;51.052;13.756;2023-04-15T09:43:13;6.20;;;3.33;;
19804;SDS011;10062;51.052;13.756;2023-04-15T09:45:47;5.27;;;3.50;;
19804;SDS011;10062;51.052;13.756;2023-04-15T09:48:20;5.80;;;3.50;;
19804;SDS011;10062;51.052;13.756;2023-04-15T09:50:56;4.87;;;3.00;;
19804;SDS011;10062;51.052;13.756;2023-04-15T09:53:29;4.10;;;2.77;;
19804;SDS011;10062;51.052;13.756;2023-04-15T09:56:04;5.47;;;3.57;;
19804;SDS011;10062;51.052;13.756;2023-04-15T09:58:37;6.93;;;4.40;;
19804;SDS011;10062;51.052;13.756;2023-04-15T10:01:11;5.93;;;3.77;;
19804;SDS011;10062;51.052;13.756;2023-04-15T10:03:43;5.43;;;3.50;;
19804;SDS011;10062;51.052;13.756;2023-04-15T10:06:17;4.50;;;3.00;;
19804;SDS011;10062;51.052;13.756;2023-04-15T10:08:49;6.60;;;3.67;;
19804;SDS011;10062;51.052;13.756;2023-04-15T10:11:21;5.03;;;2.67;;
19804;SDS011;10062;51.052;13.756;2023-04-15T10:13:54;5.67;;;3.40;;
19804;SDS011;10062;51.052;13.756;2023-04-15T10:16:27;4.57;;;3.17;;
19804;SDS011;10062;51.052;13.756;2023-04-15T10:19:00;5.07;;;3.13;;
19804;SDS011;10062;51.052;13.756;2023-04-15T10:21:34;6.27;;;3.17;;
19804;SDS011;10062;51.052;13.756;2023-04-15T10:24:07;4.07;;;2.47;;
19804;SDS011;10062;51.052;13.756;2023-04-15T10:26:39;5.57;;;3.77;;
19804;SDS011;10062;51.052;13.756;2023-04-15T10:29:12;4.10;;;2.87;;
19804;SDS011;10062;51.052;13.756;2023-04-15T10:31:44;6.83;;;3.67;;
19804;SDS011;10062;51.052;13.756;2023-04-15T10:34:17;4.17;;;3.07;;
19804;SDS011;10062;51.052;13.756;2023-04-15T10:36:51;6.00;;;3.23;;
19804;SDS011;10062;51.052;13.756;2023-04-15T10:39:39;4.87;;;3.20;;
19804;SDS011;10062;51.052;13.756;2023-04-15T10:42:12;4.47;;;3.07;;
19804;SDS011;10062;51.052;13.756;2023-04-15T10:44:47;4.97;;;3.23;;
19804;SDS011;10062;51.052;13.756;2023-04-15T10:47:20;5.03;;;3.33;;
19804;SDS011;10062;51.052;13.756;2023-04-15T10:49:55;5.93;;;3.63;;
19804;SDS011;10062;51.052;13.756;2023-04-15T10:52:29;5.03;;;3.73;;
19804;SDS011;10062;51.052;13.756;2023-04-15T10:55:02;6.60;;;3.83;;
19804;SDS011;10062;51.052;13.756;2023-04-15T10:57:42;6.87;;;3.90;;
19804;SDS011;10062;51.052;13.756;2023-04-15T11:00:15;4.57;;;2.90;;
19804;SDS011;10062;51.052;13.756;2023-04-15T11:02:51;9.07;;;3.60;;
19804;SDS011;10062;51.052;13.756;2023-04-15T11:05:47;4.97;;;3.10;;
19804;SDS011;10062;51.052;13.756;2023-04-15T11:08:51;4.13;;;2.73;;
19804;SDS011;10062;51.052;13.756;2023-04-15T11:14:31;4.13;;;2.93;;
19804;SDS011;10062;51.052;13.756;2023-04-15T11:17:04;4.40;;;2.90;;
19804;SDS011;10062;51.052;13.756;2023-04-15T11:19:36;4.57;;;2.83;;
19804;SDS011;10062;51.052;13.756;2023-04-15T11:22:08;27.03;;;14.67;;
19804;SDS011;10062;51.052;13.756;2023-04-15T11:24:47;5.17;;;3.30;;
19804;SDS011;10062;51.052;13.756;2023-04-15T11:27:20;4.13;;;2.77;;
19804;SDS011;10062;51.052;13.756;2023-04-15T11:29:52;4.60;;;2.73;;
19804;SDS011;10062;51.052;13.756;2023-04-15T11:32:24;5.93;;;2.57;;
19804;SDS011;10062;51.052;13.756;2023-04-15T11:34:55;8.43;;;2.90;;
19804;SDS011;10062;51.052;13.756;2023-04-15T11:37:28;3.83;;;2.23;;
19804;SDS011;10062;51.052;13.756;2023-04-15T11:40:02;3.87;;;2.30;;
19804;SDS011;10062;51.052;13.756;2023-04-15T11:42:34;3.03;;;2.10;;
19804;SDS011;10062;51.052;13.756;2023-04-15T11:45:06;4.20;;;2.40;;
19804;SDS011;10062;51.052;13.756;2023-04-15T11:47:38;5.00;;;3.27;;
19804;SDS011;10062;51.052;13.756;2023-04-15T11:50:14;3.10;;;1.80;;
19804;SDS011;10062;51.052;13.756;2023-04-15T11:52:53;7.13;;;2.27;;
19804;SDS011;10062;51.052;13.756;2023-04-15T11:55:27;2.73;;;1.90;;
19804;SDS011;10062;51.052;13.756;2023-04-15T11:58:07;3.97;;;1.93;;
19804;SDS011;10062;51.052;13.756;2023-04-15T12:00:40;3.33;;;1.80;;
19804;SDS011;10062;51.052;13.756;2023-04-15T12:03:22;5.27;;;2.17;;
19804;SDS011;10062;51.052;13.756;2023-04-15T12:06:09;2.97;;;1.60;;
19804;SDS011;10062;51.052;13.756;2023-04-15T12:08:55;3.57;;;1.90;;
19804;SDS011;10062;51.052;13.756;2023-04-15T12:11:37;3.73;;;1.80;;
19804;SDS011;10062;51.052;13.756;2023-04-15T12:14:11;3.73;;;1.60;;
19804;SDS011;10062;51.052;13.756;2023-04-15T12:16:47;3.07;;;1.63;;
19804;SDS011;10062;51.052;13.756;2023-04-15T12:19:24;3.30;;;1.80;;
19804;SDS011;10062;51.052;13.756;2023-04-15T12:21:58;3.50;;;1.60;;
19804;SDS011;10062;51.052;13.756;2023-04-15T12:24:30;2.30;;;1.37;;
19804;SDS011;10062;51.052;13.756;2023-04-15T12:27:04;2.30;;;1.43;;
19804;SDS011;10062;51.052;13.756;2023-04-15T12:29:37;3.10;;;1.50;;
19804;SDS011;10062;51.052;13.756;2023-04-15T12:32:11;3.43;;;1.80;;
19804;SDS011;10062;51.052;13.756;2023-04-15T12:34:44;1.90;;;1.30;;
19804;SDS011;10062;51.052;13.756;2023-04-15T12:37:21;5.80;;;3.13;;
19804;SDS011;10062;51.052;13.756;2023-04-15T12:39:52;5.67;;;2.97;;
19804;SDS011;10062;51.052;13.756;2023-04-15T12:42:25;2.27;;;1.50;;
19804;SDS011;10062;51.052;13.756;2023-04-15T12:44:57;2.90;;;1.50;;
19804;SDS011;10062;51.052;13.756;2023-04-15T12:47:29;7.13;;;1.63;;
19804;SDS011;10062;51.052;13.756;2023-04-15T12:50:00;2.03;;;1.10;;
19804;SDS011;10062;51.052;13.756;2023-04-15T12:52:32;2.43;;;1.40;;
19804;SDS011;10062;51.052;13.756;2023-04-15T12:55:04;2.33;;;1.60;;
19804;SDS011;10062;51.052;13.756;2023-04-15T12:57:38;3.00;;;1.80;;
19804;SDS011;10062;51.052;13.756;2023-04-15T13:00:10;3.03;;;2.07;;
19804;SDS011;10062;51.052;13.756;2023-04-15T13:02:42;4.37;;;1.70;;
19804;SDS011;10062;51.052;13.756;2023-04-15T13:05:14;2.97;;;1.80;;
19804;SDS011;10062;51.052;13.756;2023-04-15T13:07:46;6.63;;;1.60;;
19804;SDS011;10062;51.052;13.756;2023-04-15T13:10:18;3.60;;;1.73;;
19804;SDS011;10062;51.052;13.756;2023-04-15T13:12:52;3.03;;;1.60;;
19804;SDS011;10062;51.052;13.756;2023-04-15T13:15:25;3.97;;;1.90;;
19804;SDS011;10062;51.052;13.756;2023-04-15T13:17:57;2.93;;;1.47;;
19804;SDS011;10062;51.052;13.756;2023-04-15T13:20:29;3.43;;;1.97;;
19804;SDS011;10062;51.052;13.756;2023-04-15T13:23:01;2.80;;;1.80;;
19804;SDS011;10062;51.052;13.756;2023-04-15T13:25:32;5.27;;;2.03;;
19804;SDS011;10062;51.052;13.756;2023-04-15T13:28:05;4.17;;;2.27;;
19804;SDS011;10062;51.052;13.756;2023-04-15T13:30:37;3.53;;;1.83;;
19804;SDS011;10062;51.052;13.756;2023-04-15T13:33:09;4.80;;;2.70;;
19804;SDS011;10062;51.052;13.756;2023-04-15T13:35:41;6.50;;;2.90;;
19804;SDS011;10062;51.052;13.756;2023-04-15T13:38:13;4.33;;;2.40;;
19804;SDS011;10062;51.052;13.756;2023-04-15T13:40:44;5.33;;;2.57;;
19804;SDS011;10062;51.052;13.756;2023-04-15T13:43:18;5.23;;;2.40;;
19804;SDS011;10062;51.052;13.756;2023-04-15T13:45:50;3.83;;;2.17;;
19804;SDS011;10062;51.052;13.756;2023-04-15T13:48:22;4.67;;;2.67;;
19804;SDS011;10062;51.052;13.756;2023-04-15T13:50:53;4.33;;;2.40;;
19804;SDS011;10062;51.052;13.756;2023-04-15T13:53:25;4.73;;;2.70;;
19804;SDS011;10062;51.052;13.756;2023-04-15T13:55:57;4.13;;;2.23;;
19804;SDS011;10062;51.052;13.756;2023-04-15T13:58:30;4.13;;;2.30;;
19804;SDS011;10062;51.052;13.756;2023-04-15T14:01:02;4.93;;;2.73;;
19804;SDS011;10062;51.052;13.756;2023-04-15T14:03:34;7.03;;;2.70;;
19804;SDS011;10062;51.052;13.756;2023-04-15T14:06:07;4.17;;;2.60;;
19804;SDS011;10062;51.052;13.756;2023-04-15T14:08:38;5.43;;;3.30;;
19804;SDS011;10062;51.052;13.756;2023-04-15T14:11:10;4.03;;;2.57;;
19804;SDS011;10062;51.052;13.756;2023-04-15T14:13:43;5.67;;;2.10;;
19804;SDS011;10062;51.052;13.756;2023-04-15T14:16:15;3.70;;;2.20;;
19804;SDS011;10062;51.052;13.756;2023-04-15T14:18:47;4.33;;;2.67;;
19804;SDS011;10062;51.052;13.756;2023-04-15T14:21:18;5.30;;;2.50;;
19804;SDS011;10062;51.052;13.756;2023-04-15T14:23:50;4.57;;;2.20;;
19804;SDS011;10062;51.052;13.756;2023-04-15T14:26:22;3.70;;;2.10;;
19804;SDS011;10062;51.052;13.756;2023-04-15T14:28:55;3.40;;;2.00;;
19804;SDS011;10062;51.052;13.756;2023-04-15T14:31:27;3.67;;;2.50;;
19804;SDS011;10062;51.052;13.756;2023-04-15T14:33:59;3.57;;;2.10;;
19804;SDS011;10062;51.052;13.756;2023-04-15T14:36:30;3.80;;;2.13;;
19804;SDS011;10062;51.052;13.756;2023-04-15T14:39:02;5.50;;;2.20;;
19804;SDS011;10062;51.052;13.756;2023-04-15T14:41:34;3.63;;;2.20;;
19804;SDS011;10062;51.052;13.756;2023-04-15T14:44:07;3.47;;;1.90;;
19804;SDS011;10062;51.052;13.756;2023-04-15T14:46:40;3.37;;;1.80;;
19804;SDS011;10062;51.052;13.756;2023-04-15T14:49:12;4.50;;;2.20;;
19804;SDS011;10062;51.052;13.756;2023-04-15T14:51:43;3.47;;;2.10;;
19804;SDS011;10062;51.052;13.756;2023-04-15T14:54:15;4.17;;;2.37;;
19804;SDS011;10062;51.052;13.756;2023-04-15T14:56:47;4.33;;;2.17;;
19804;SDS011;10062;51.052;13.756;2023-04-15T14:59:21;4.00;;;2.20;;
19804;SDS011;10062;51.052;13.756;2023-04-15T15:01:52;3.37;;;2.00;;
19804;SDS011;10062;51.052;13.756;2023-04-15T15:04:31;4.07;;;1.90;;
19804;SDS011;10062;51.052;13.756;2023-04-15T15:07:03;4.30;;;2.07;;
19804;SDS011;10062;51.052;13.756;2023-04-15T15:09:34;3.33;;;1.70;;
19804;SDS011;10062;51.052;13.756;2023-04-15T15:12:14;3.67;;;2.00;;